»·PEaware :: N289FZ KONT-KSEE

N289FZ :: KONT-KSEE

FLIGHT INFORMATION

Flight Status: Arrived
Operator: Privately registered:
United States
More flights under this callsign
Pilot: Sanjiv S. (4490)
Aircraft: CESSNA 152 AEROBAT
(C152)
More flights by this aircraft type
Origin: KONT Ontario Intl
United States
Destination: KSEE Gillespie
United States
More flights between these airports :: More routes between these airports
Route: +
File this flight plan on PilotEdge
Remarks:
Altitude:
(Current/Filed)
0ft
Speed:
(Current/Filed)
0kts
Departed: 27-Jun-18 10:00 AM
Arrived: 27-Jun-18 11:19 AM
Distance/Time
Traveled:
80nm/1:19
Distance/Time
To Go:
Arrived

Flight Plot

Page will automatically refresh every two minutes.

Flight plan parsing failed; only flown route is shown


Map Options




Map Legend


Flown Route
Filed Route
Departure Airport
Arrival Airport
Navaid (VOR, NDB)
Fix

Horizontal Profiles

Position Reports

Time Latitude Longitude Heading Altitude Ground
Speed
27-Jun-18 09:46 34.050552 -117.603774 53 907ft 0kts
27-Jun-18 09:47 34.050552 -117.603774 53 907ft 0kts
27-Jun-18 09:48 34.050552 -117.603774 53 907ft 0kts
27-Jun-18 09:49 34.053237 -117.603567 0 915ft 0kts
27-Jun-18 09:50 34.053289 -117.603567 357 915ft 2kts
27-Jun-18 09:51 34.053838 -117.598997 91 914ft 27kts
27-Jun-18 09:52 34.053843 -117.590163 95 914ft 32kts
27-Jun-18 09:53 34.054129 -117.582398 356 917ft 0kts
27-Jun-18 09:54 34.054129 -117.582398 356 917ft 0kts
27-Jun-18 09:55 34.054129 -117.582398 356 917ft 0kts
27-Jun-18 09:56 34.054129 -117.582398 356 917ft 0kts
27-Jun-18 09:57 34.054129 -117.582398 356 917ft 0kts
27-Jun-18 09:58 34.054150 -117.582399 355 917ft 1kts
27-Jun-18 09:59 34.054951 -117.583078 270 921ft 29kts
27-Jun-18 10:00 34.055012 -117.589927 271 1039ft 76kts
27-Jun-18 10:01 34.047360 -117.625590 240 2164ft 91kts
27-Jun-18 10:02 34.035147 -117.654049 242 2623ft 102kts
27-Jun-18 10:03 34.022819 -117.682939 244 2882ft 104kts
27-Jun-18 10:04 34.010897 -117.711101 246 2781ft 107kts
27-Jun-18 10:05 33.997352 -117.739054 239 2747ft 106kts
27-Jun-18 10:06 33.978422 -117.750039 150 2762ft 109kts
27-Jun-18 10:07 33.971962 -117.721265 99 3020ft 108kts
27-Jun-18 10:08 33.968595 -117.689049 101 3418ft 107kts
27-Jun-18 10:09 33.958816 -117.658586 112 3766ft 108kts
27-Jun-18 10:10 33.946133 -117.628823 97 4068ft 109kts
27-Jun-18 10:11 33.939981 -117.596541 111 4372ft 110kts
27-Jun-18 10:12 33.931149 -117.559799 111 4690ft 112kts
27-Jun-18 10:13 33.919083 -117.533055 116 4981ft 110kts
27-Jun-18 10:14 33.896902 -117.509969 146 5233ft 113kts
27-Jun-18 10:15 33.873326 -117.486724 143 5446ft 110kts
27-Jun-18 10:16 33.847276 -117.468950 142 5525ft 110kts
27-Jun-18 10:17 33.824226 -117.445570 138 5579ft 110kts
27-Jun-18 10:18 33.799569 -117.424519 146 5590ft 113kts
27-Jun-18 10:19 33.774609 -117.402847 138 5568ft 112kts
27-Jun-18 10:20 33.746226 -117.388711 168 5468ft 113kts
27-Jun-18 10:21 33.722724 -117.365901 127 5424ft 111kts
27-Jun-18 10:22 33.702255 -117.342585 145 5463ft 112kts
27-Jun-18 10:23 33.682359 -117.322081 136 5510ft 110kts
27-Jun-18 10:24 33.664065 -117.304394 138 5572ft 108kts
27-Jun-18 10:25 33.644668 -117.283417 137 5594ft 110kts
27-Jun-18 10:26 33.623703 -117.262744 147 5593ft 112kts
27-Jun-18 10:27 33.602019 -117.242892 153 5612ft 110kts
27-Jun-18 10:28 33.584170 -117.229554 139 5633ft 110kts
27-Jun-18 10:29 33.566223 -117.211758 134 5606ft 111kts
27-Jun-18 10:30 33.547877 -117.193795 142 5516ft 113kts
27-Jun-18 10:31 33.530441 -117.178523 141 5469ft 113kts
27-Jun-18 10:32 33.515646 -117.163339 133 5441ft 112kts
27-Jun-18 10:33 33.499914 -117.148704 138 5471ft 111kts
27-Jun-18 10:34 33.488308 -117.131384 138 5396ft 113kts
27-Jun-18 10:35 33.472862 -117.118005 138 5438ft 109kts
27-Jun-18 10:36 33.460310 -117.101093 141 5419ft 112kts
27-Jun-18 10:37 33.442323 -117.090220 146 5559ft 108kts
27-Jun-18 10:38 33.425418 -117.078314 142 5659ft 107kts
27-Jun-18 10:39 33.402326 -117.064804 157 5658ft 120kts
27-Jun-18 10:40 33.376431 -117.049446 145 5552ft 116kts
27-Jun-18 10:41 33.353707 -117.028089 141 5506ft 113kts
27-Jun-18 10:42 33.332788 -117.004444 142 5470ft 114kts
27-Jun-18 10:43 33.311050 -116.983199 145 5518ft 111kts
27-Jun-18 10:44 33.293908 -116.957232 105 5551ft 115kts
27-Jun-18 10:45 33.270127 -116.944058 152 5495ft 113kts
27-Jun-18 10:46 33.247766 -116.920505 134 5558ft 113kts
27-Jun-18 10:47 33.224320 -116.899103 145 5592ft 112kts
27-Jun-18 10:48 33.200515 -116.877673 151 5554ft 113kts
27-Jun-18 10:49 33.176594 -116.854561 139 5490ft 115kts
27-Jun-18 10:50 33.156220 -116.826825 146 5484ft 112kts
27-Jun-18 10:51 33.132700 -116.804390 153 5560ft 110kts
27-Jun-18 10:52 33.106964 -116.786711 140 5639ft 111kts
27-Jun-18 10:53 33.084031 -116.761875 146 5568ft 113kts
27-Jun-18 10:54 33.059486 -116.739323 144 5537ft 114kts
27-Jun-18 10:55 33.034615 -116.719513 162 5514ft 112kts
27-Jun-18 10:56 33.008757 -116.699874 144 5507ft 112kts
27-Jun-18 10:57 32.987118 -116.673911 119 5506ft 115kts
27-Jun-18 10:58 32.964590 -116.651543 168 5466ft 111kts
27-Jun-18 10:59 32.936289 -116.638444 152 5470ft 112kts
27-Jun-18 11:00 32.911097 -116.618996 148 5546ft 111kts
27-Jun-18 11:01 32.884809 -116.602579 161 5609ft 110kts
27-Jun-18 11:02 32.857693 -116.590985 187 5629ft 108kts
27-Jun-18 11:03 32.829858 -116.598897 216 5684ft 105kts
27-Jun-18 11:04 32.803663 -116.610568 183 5640ft 111kts
27-Jun-18 11:05 32.773394 -116.611256 180 4985ft 109kts
27-Jun-18 11:06 32.765898 -116.636519 279 4176ft 107kts
27-Jun-18 11:07 32.770905 -116.669112 285 3582ft 99kts
27-Jun-18 11:08 32.776702 -116.699766 285 3233ft 91kts
27-Jun-18 11:09 32.782661 -116.728459 289 3166ft 93kts
27-Jun-18 11:10 32.788704 -116.758378 281 3386ft 91kts
27-Jun-18 11:11 32.792326 -116.788214 282 3556ft 94kts
27-Jun-18 11:12 32.798188 -116.819646 281 3529ft 100kts
27-Jun-18 11:13 32.804522 -116.850755 282 2678ft 100kts
27-Jun-18 11:14 32.810063 -116.879343 282 2121ft 90kts
27-Jun-18 11:15 32.815710 -116.908029 282 1689ft 87kts
27-Jun-18 11:16 32.820004 -116.930925 283 1267ft 73kts
27-Jun-18 11:17 32.823761 -116.950536 280 810ft 65kts
27-Jun-18 11:18 32.827326 -116.969429 281 381ft 44kts
27-Jun-18 11:19 32.827799 -116.970874 88 369ft 0kts
27-Jun-18 11:20 32.827799 -116.970875 89 369ft 0kts

Navigation Log

Ident Type
Flight plan parsing failed, navigation log unavailable